Time;durP1;ratioP1;P1;durP2;ratioP2;P2;SDS_P1;SDS_P2;PMS_P1;PMS_P2;Temp;Humidity;BMP_temperature;BMP_pressure;BME280_temperature;BME280_humidity;BME280_pressure;Samples;Min_cycle;Max_cycle;Signal;HPM_P1;HPM_P2
2022/11/19 00:01:02;;;;;;;36.40;17.52;;;;;;;-3.05;100.00;97974.19;4205391;28;20090;-72
2022/11/19 00:03:02;;;;;;;39.55;16.33;;;;;;;-3.11;100.00;97968.06;4204532;28;20098;-73
2022/11/19 00:05:03;;;;;;;45.67;19.13;;;;;;;-3.09;100.00;97973.97;4205736;28;20040;-72
2022/11/19 00:07:03;;;;;;;39.17;17.98;;;;;;;-3.08;100.00;97980.19;4205227;28;20069;-72
2022/11/19 00:09:04;;;;;;;37.05;17.23;;;;;;;-3.11;100.00;97985.09;4205066;28;20085;-72
2022/11/19 00:13:40;;;;;;;45.88;20.33;;;;;;;-3.07;100.00;97987.19;4204276;28;20534;-72
2022/11/19 00:15:40;;;;;;;38.17;17.55;;;;;;;-3.04;100.00;97989.31;4205478;28;20127;-72
2022/11/19 00:17:40;;;;;;;40.58;17.33;;;;;;;-3.08;100.00;97994.53;4205391;28;20083;-72
2022/11/19 00:19:41;;;;;;;43.92;18.00;;;;;;;-3.07;100.00;97985.28;4205070;28;20039;-72
2022/11/19 00:21:41;;;;;;;36.42;16.00;;;;;;;-3.03;100.00;97989.00;4205044;28;20039;-72
2022/11/19 00:23:41;;;;;;;38.95;16.70;;;;;;;-3.05;100.00;98001.25;4204168;28;20040;-72
2022/11/19 00:25:42;;;;;;;43.10;18.58;;;;;;;-3.04;100.00;97997.44;4204983;28;20538;-72
2022/11/19 00:27:42;;;;;;;35.65;15.93;;;;;;;-3.04;100.00;98008.28;4205199;28;20363;-72
2022/11/19 00:29:42;;;;;;;31.75;14.70;;;;;;;-3.05;100.00;98004.75;4205283;28;20048;-72
2022/11/19 00:31:42;;;;;;;35.17;15.45;;;;;;;-3.04;100.00;98010.97;4204808;28;20085;-72
2022/11/19 00:33:44;;;;;;;38.20;16.42;;;;;;;-3.02;100.00;98014.97;4204229;28;20055;-72
2022/11/19 00:35:45;;;;;;;32.17;13.80;;;;;;;-3.05;100.00;98021.00;4205239;28;20555;-72
2022/11/19 00:37:45;;;;;;;32.78;13.90;;;;;;;-3.04;100.00;98021.81;4205619;28;20273;-72
2022/11/19 00:39:45;;;;;;;32.70;14.77;;;;;;;-3.07;100.00;98015.06;4205067;28;20040;-72
2022/11/19 00:41:45;;;;;;;32.72;14.70;;;;;;;-3.10;100.00;98012.97;4204196;28;20028;-72
2022/11/19 00:43:46;;;;;;;30.00;13.77;;;;;;;-3.12;100.00;98012.47;4204283;28;20083;-72
2022/11/19 00:45:47;;;;;;;30.33;14.43;;;;;;;-3.12;100.00;98017.88;4205006;28;20052;-72
2022/11/19 00:47:48;;;;;;;30.67;12.73;;;;;;;-3.11;100.00;98025.69;4203631;28;20123;-72
2022/11/19 00:49:48;;;;;;;30.23;13.65;;;;;;;-3.16;100.00;98019.56;4204695;28;20827;-72
2022/11/19 00:51:48;;;;;;;29.00;12.77;;;;;;;-3.19;100.00;98015.56;4204358;28;20066;-72
2022/11/19 00:53:49;;;;;;;28.20;13.20;;;;;;;-3.13;100.00;98027.09;4204145;28;20040;-72
2022/11/19 00:55:50;;;;;;;27.90;11.82;;;;;;;-3.11;100.00;98030.31;4204840;28;20055;-72
2022/11/19 00:57:50;;;;;;;28.42;13.27;;;;;;;-3.18;100.00;98022.59;4203304;28;20044;-72
2022/11/19 00:59:50;;;;;;;25.75;13.27;;;;;;;-3.14;100.00;98023.59;4203250;28;20400;-72
2022/11/19 01:01:51;;;;;;;24.27;11.95;;;;;;;-3.15;100.00;98015.75;4204117;28;20040;-72
2022/11/19 01:03:52;;;;;;;23.08;11.82;;;;;;;-3.14;100.00;98020.91;4205236;28;20067;-72
2022/11/19 01:05:52;;;;;;;21.95;11.32;;;;;;;-3.15;100.00;98023.88;4203954;28;20438;-72
2022/11/19 01:07:53;;;;;;;23.65;10.65;;;;;;;-3.16;100.00;98025.78;4204110;28;20048;-72
2022/11/19 01:09:53;;;;;;;21.67;10.95;;;;;;;-3.22;100.00;98035.13;4204672;28;20383;-72
2022/11/19 01:11:54;;;;;;;25.13;11.35;;;;;;;-3.23;100.00;98021.88;4186158;28;20041;-72
2022/11/19 01:13:55;;;;;;;23.88;12.20;;;;;;;-3.30;100.00;98027.69;4203389;28;20044;-72
2022/11/19 01:15:55;;;;;;;23.35;10.70;;;;;;;-3.24;100.00;98033.78;4204437;28;20438;-72
2022/11/19 01:17:56;;;;;;;21.73;10.95;;;;;;;-3.30;100.00;98021.47;4204538;28;20447;-73
2022/11/19 01:19:56;;;;;;;19.83;9.88;;;;;;;-3.27;100.00;98023.56;4204922;28;20519;-72
2022/11/19 01:21:56;;;;;;;20.58;10.85;;;;;;;-3.29;100.00;98028.50;4204162;28;20042;-72
2022/11/19 01:23:57;;;;;;;19.08;9.77;;;;;;;-3.27;100.00;98031.69;4203858;28;20438;-72
2022/11/19 01:25:58;;;;;;;21.05;10.40;;;;;;;-3.25;100.00;98040.31;4203860;28;20794;-72
2022/11/19 01:27:58;;;;;;;18.95;8.98;;;;;;;-3.27;100.00;98037.91;4204146;28;20185;-72
2022/11/19 01:29:58;;;;;;;19.45;9.60;;;;;;;-3.26;100.00;98034.09;4204318;28;20055;-72
2022/11/19 01:31:59;;;;;;;18.02;10.00;;;;;;;-3.29;100.00;98042.03;4204131;28;20059;-72
2022/11/19 01:33:59;;;;;;;17.77;9.13;;;;;;;-3.31;100.00;98038.78;4203455;28;20043;-72
2022/11/19 01:36:03;;;;;;;17.70;10.13;;;;;;;-3.33;100.00;98041.00;4203706;28;20468;-72
2022/11/19 01:38:04;;;;;;;17.40;9.38;;;;;;;-3.37;100.00;98054.31;4204131;28;20135;-72
2022/11/19 01:40:05;;;;;;;19.43;10.00;;;;;;;-3.38;100.00;98047.31;4203981;28;20028;-72
2022/11/19 01:42:48;;;;;;;19.67;10.57;;;;;;;-3.37;100.00;98050.81;4204228;28;20081;-72
2022/11/19 01:45:05;;;;;;;16.20;8.70;;;;;;;-3.38;100.00;98051.94;4203508;28;20673;-72
2022/11/19 01:47:05;;;;;;;18.67;8.73;;;;;;;-3.38;100.00;98049.22;4203069;28;20363;-72
2022/11/19 01:49:16;;;;;;;17.33;8.85;;;;;;;-3.38;100.00;98054.63;4203638;28;20545;-72
2022/11/19 01:51:20;;;;;;;17.17;8.90;;;;;;;-3.42;100.00;98055.22;4203245;28;20321;-72
2022/11/19 01:53:25;;;;;;;16.58;8.68;;;;;;;-3.37;100.00;98062.44;4202301;28;20083;-72
2022/11/19 01:55:26;;;;;;;17.05;8.48;;;;;;;-3.38;100.00;98057.34;4203800;28;20044;-72
2022/11/19 01:57:27;;;;;;;18.90;8.60;;;;;;;-3.38;100.00;98058.13;4203761;28;20410;-72
2022/11/19 01:59:30;;;;;;;17.02;8.18;;;;;;;-3.41;100.00;98064.94;4202759;28;20051;-72
2022/11/19 02:01:31;;;;;;;16.80;9.00;;;;;;;-3.40;100.00;98057.59;4203577;28;20656;-72
2022/11/19 02:03:32;;;;;;;17.05;9.10;;;;;;;-3.41;100.00;98062.22;4202909;28;20080;-72
2022/11/19 02:05:34;;;;;;;17.35;8.73;;;;;;;-3.40;100.00;98068.44;4203255;28;20044;-72
2022/11/19 02:07:35;;;;;;;17.88;9.57;;;;;;;-3.45;100.00;98063.94;4203557;28;20400;-72
2022/11/19 02:09:36;;;;;;;15.18;8.55;;;;;;;-3.47;100.00;98063.44;4202068;28;20474;-72
2022/11/19 02:11:47;;;;;;;18.45;10.25;;;;;;;-3.48;100.00;98061.00;4202601;28;20141;-72
2022/11/19 02:14:14;;;;;;;14.90;8.30;;;;;;;-3.50;100.00;98058.59;4202085;28;20372;-72
2022/11/19 02:16:23;;;;;;;18.15;9.23;;;;;;;-3.53;100.00;98052.97;4184835;28;20052;-72
2022/11/19 02:18:39;;;;;;;15.23;8.23;;;;;;;-3.54;100.00;98063.00;4203173;28;20085;-72
2022/11/19 02:20:54;;;;;;;15.00;8.20;;;;;;;-3.56;100.00;98067.88;4204985;28;20159;-72
2022/11/19 02:23:17;;;;;;;15.82;8.45;;;;;;;-3.58;100.00;98064.69;4202666;28;20047;-72
2022/11/19 02:25:20;;;;;;;13.63;7.68;;;;;;;-3.60;100.00;98058.78;4203572;28;20052;-72
2022/11/19 02:27:39;;;;;;;16.73;8.40;;;;;;;-3.63;100.00;98072.88;4203723;28;20216;-72
2022/11/19 02:29:57;;;;;;;16.45;8.00;;;;;;;-3.62;100.00;98057.47;4203304;28;20587;-72
2022/11/19 02:32:08;;;;;;;14.75;8.70;;;;;;;-3.63;100.00;98053.97;4202523;28;20107;-72
2022/11/19 02:34:14;;;;;;;14.38;8.15;;;;;;;-3.64;100.00;98048.81;4184055;28;20047;-72
2022/11/19 02:36:24;;;;;;;16.33;8.45;;;;;;;-3.71;100.00;98046.53;4202917;28;20102;-72
2022/11/19 02:38:38;;;;;;;13.27;7.65;;;;;;;-3.71;100.00;98060.84;4202723;28;20043;-72
2022/11/19 02:40:43;;;;;;;16.27;8.45;;;;;;;-3.76;100.00;98063.63;4202278;28;20048;-72
2022/11/19 02:43:06;;;;;;;17.10;8.63;;;;;;;-3.78;100.00;98067.72;4202335;28;20047;-72
2022/11/19 02:45:17;;;;;;;16.23;8.65;;;;;;;-3.79;100.00;98064.22;4202926;28;20416;-72
2022/11/19 02:47:22;;;;;;;14.35;7.82;;;;;;;-3.78;100.00;98068.53;4203423;28;20052;-72
2022/11/19 02:49:27;;;;;;;16.05;7.93;;;;;;;-3.80;100.00;98062.63;4202412;28;20044;-72
2022/11/19 02:51:28;;;;;;;15.68;7.88;;;;;;;-3.81;100.00;98076.41;4202610;28;20055;-72
2022/11/19 02:53:29;;;;;;;17.83;9.45;;;;;;;-3.78;100.00;98070.44;4202909;28;20527;-72
2022/11/19 02:55:30;;;;;;;16.08;8.75;;;;;;;-3.80;100.00;98069.94;4202609;28;20043;-72
2022/11/19 02:57:30;;;;;;;17.40;10.40;;;;;;;-3.77;100.00;98055.81;4202728;28;20292;-72
2022/11/19 03:04:31;;;;;;;16.40;8.98;;;;;;;-3.84;100.00;98060.78;4203027;28;20701;-72
2022/11/19 03:06:33;;;;;;;15.18;8.30;;;;;;;-3.85;100.00;98057.28;4202920;28;20475;-72
2022/11/19 03:08:34;;;;;;;18.30;9.15;;;;;;;-3.81;100.00;98077.19;4203173;28;20036;-72
2022/11/19 03:11:06;;;;;;;16.38;8.30;;;;;;;-3.82;100.00;98058.59;4202347;28;20047;-72
2022/11/19 03:18:34;;;;;;;18.48;8.20;;;;;;;-3.80;100.00;98059.91;4200992;28;20101;-72
2022/11/19 03:20:40;;;;;;;17.88;8.73;;;;;;;-3.80;100.00;98065.31;4203577;28;20310;-72
2022/11/19 03:23:01;;;;;;;15.00;8.07;;;;;;;-3.81;100.00;98066.38;4201771;28;20474;-72
2022/11/19 03:25:11;;;;;;;16.33;8.20;;;;;;;-3.84;100.00;98066.19;4202499;28;20507;-72
2022/11/19 03:27:18;;;;;;;14.27;7.93;;;;;;;-3.85;100.00;98070.00;4202155;28;20390;-72
2022/11/19 03:29:21;;;;;;;18.40;9.13;;;;;;;-3.86;100.00;98071.91;4202825;28;20170;-73
2022/11/19 03:31:24;;;;;;;15.20;8.52;;;;;;;-3.84;100.00;98069.69;4202172;28;20246;-72
2022/11/19 03:33:44;;;;;;;14.25;7.97;;;;;;;-3.88;100.00;98076.81;4200626;28;20131;-72
2022/11/19 03:35:53;;;;;;;18.13;8.70;;;;;;;-3.88;100.00;98076.81;4202499;28;20286;-72
2022/11/19 03:37:58;;;;;;;16.50;8.57;;;;;;;-3.87;100.00;98081.09;4202661;28;20052;-72
2022/11/19 03:40:00;;;;;;;15.60;8.30;;;;;;;-3.86;100.00;98076.50;4202811;28;20320;-72
2022/11/19 03:42:04;;;;;;;15.50;7.45;;;;;;;-3.85;100.00;98078.91;4202394;28;20189;-72
2022/11/19 03:44:11;;;;;;;18.45;9.05;;;;;;;-3.85;100.00;98081.59;4201626;28;20063;-73
2022/11/19 03:46:15;;;;;;;16.10;8.20;;;;;;;-3.86;100.00;98084.59;4202301;28;20031;-72
2022/11/19 03:48:19;;;;;;;13.95;8.13;;;;;;;-3.85;100.00;98088.91;4202285;28;20534;-73
2022/11/19 03:50:29;;;;;;;15.20;8.23;;;;;;;-3.87;100.00;98089.22;4202438;28;20108;-72
2022/11/19 03:52:30;;;;;;;14.90;8.27;;;;;;;-3.87;100.00;98091.91;4201728;28;20071;-73
2022/11/19 03:54:30;;;;;;;18.42;9.05;;;;;;;-3.86;100.00;98085.41;4202609;28;20166;-73
2022/11/19 03:56:35;;;;;;;18.77;8.93;;;;;;;-3.85;100.00;98097.81;4202963;28;20056;-72
2022/11/19 03:58:38;;;;;;;15.15;8.35;;;;;;;-3.84;100.00;98093.22;4202274;28;20466;-73
2022/11/19 04:00:38;;;;;;;15.07;8.80;;;;;;;-3.86;100.00;98098.13;4201897;28;20040;-73
2022/11/19 04:02:39;;;;;;;14.50;8.98;;;;;;;-3.83;100.00;98094.81;4201398;28;20047;-73
2022/11/19 04:04:39;;;;;;;17.00;8.90;;;;;;;-3.81;100.00;98096.13;4202789;28;20036;-73
2022/11/19 04:06:39;;;;;;;16.77;8.52;;;;;;;-3.87;100.00;98094.63;4202388;28;20439;-73
2022/11/19 04:08:40;;;;;;;16.75;8.60;;;;;;;-3.85;100.00;98091.63;4202295;28;20040;-73
2022/11/19 04:10:40;;;;;;;18.08;9.07;;;;;;;-3.84;100.00;98087.81;4202449;28;20472;-73
2022/11/19 04:12:40;;;;;;;18.48;9.20;;;;;;;-3.82;100.00;98097.22;4201512;28;20048;-73
2022/11/19 04:14:41;;;;;;;17.25;9.13;;;;;;;-3.84;100.00;98093.22;4201748;28;20039;-73
2022/11/19 04:16:41;;;;;;;17.08;8.85;;;;;;;-3.87;100.00;98107.34;4202071;28;20161;-73
2022/11/19 04:18:41;;;;;;;15.32;8.52;;;;;;;-3.89;100.00;98112.22;4202487;28;20131;-73
2022/11/19 04:20:44;;;;;;;17.25;8.40;;;;;;;-3.94;100.00;98107.69;4201989;28;20028;-73
2022/11/19 04:22:44;;;;;;;16.02;8.48;;;;;;;-3.96;100.00;98116.09;4201832;28;20047;-73
2022/11/19 04:24:45;;;;;;;13.98;8.00;;;;;;;-3.94;100.00;98117.69;4203998;28;20048;-73
2022/11/19 04:26:45;;;;;;;20.23;8.57;;;;;;;-3.94;100.00;98115.00;4205199;28;20360;-73
2022/11/19 04:28:45;;;;;;;15.05;8.25;;;;;;;-3.94;100.00;98101.50;4204988;28;20500;-73
2022/11/19 04:30:46;;;;;;;15.40;7.88;;;;;;;-3.96;100.00;98096.38;4204542;28;20197;-73
2022/11/19 04:32:46;;;;;;;15.73;8.05;;;;;;;-3.93;100.00;98106.59;4204813;28;20434;-73
2022/11/19 04:34:46;;;;;;;18.90;8.52;;;;;;;-3.95;100.00;98116.91;4205253;28;20085;-73
2022/11/19 04:36:47;;;;;;;14.48;8.52;;;;;;;-3.96;100.00;98115.31;4204996;28;20040;-73
2022/11/19 04:38:47;;;;;;;17.85;8.35;;;;;;;-3.96;100.00;98115.31;4205779;28;20826;-73
2022/11/19 04:40:47;;;;;;;13.98;6.90;;;;;;;-3.95;100.00;98114.19;4204639;28;20357;-73
2022/11/19 04:42:48;;;;;;;13.18;7.78;;;;;;;-3.96;100.00;98118.00;4203855;28;20043;-73
2022/11/19 04:44:48;;;;;;;16.80;8.32;;;;;;;-3.98;100.00;98107.47;4204911;28;20186;-73
2022/11/19 04:46:48;;;;;;;14.18;7.80;;;;;;;-3.96;100.00;98112.59;4204367;28;20082;-73
2022/11/19 04:48:48;;;;;;;15.60;7.72;;;;;;;-3.99;100.00;98111.25;4204905;28;20040;-73
2022/11/19 04:50:49;;;;;;;13.68;7.53;;;;;;;-4.06;100.00;98113.50;4205137;28;20113;-73
2022/11/19 04:52:49;;;;;;;13.85;7.32;;;;;;;-4.03;100.00;98112.16;4204060;28;20046;-73
2022/11/19 04:54:49;;;;;;;15.80;7.45;;;;;;;-4.07;100.00;98120.03;4205041;28;20066;-73
2022/11/19 04:56:50;;;;;;;16.13;8.07;;;;;;;-4.09;100.00;98119.50;4204665;28;20130;-73
2022/11/19 04:58:50;;;;;;;15.20;7.47;;;;;;;-4.11;100.00;98110.91;4204854;28;20040;-73
2022/11/19 05:00:50;;;;;;;18.23;8.15;;;;;;;-4.12;100.00;98112.00;4204467;28;20080;-73
2022/11/19 05:02:51;;;;;;;14.82;7.82;;;;;;;-4.13;100.00;98123.91;4203468;28;20055;-73
2022/11/19 05:04:51;;;;;;;15.25;7.90;;;;;;;-4.14;100.00;98122.28;4205600;28;20407;-73
2022/11/19 05:06:51;;;;;;;15.07;8.00;;;;;;;-4.16;100.00;98124.47;4204305;28;20028;-73
2022/11/19 05:08:51;;;;;;;14.82;7.97;;;;;;;-4.17;100.00;98127.47;4204637;28;20068;-73
2022/11/19 05:10:52;;;;;;;16.58;8.23;;;;;;;-4.16;100.00;98132.56;4204344;28;20322;-73
2022/11/19 05:12:52;;;;;;;15.27;7.80;;;;;;;-4.16;100.00;98132.56;4203414;28;20052;-73
2022/11/19 05:14:52;;;;;;;14.60;8.43;;;;;;;-4.16;100.00;98142.59;4204541;28;20465;-73
2022/11/19 05:16:53;;;;;;;13.05;7.53;;;;;;;-4.18;100.00;98139.38;4204891;28;20044;-73
2022/11/19 05:18:53;;;;;;;14.90;8.13;;;;;;;-4.19;100.00;98143.97;4204558;28;20111;-73
2022/11/19 05:20:53;;;;;;;14.32;7.53;;;;;;;-4.22;100.00;98139.13;4204485;28;20135;-73
2022/11/19 05:22:54;;;;;;;15.63;8.35;;;;;;;-4.27;100.00;98131.91;4203319;28;20048;-73
2022/11/19 05:24:54;;;;;;;13.63;8.27;;;;;;;-4.25;100.00;98139.72;4203978;28;20079;-73
2022/11/19 05:26:54;;;;;;;13.10;7.18;;;;;;;-4.27;100.00;98131.09;4204208;28;20408;-73
2022/11/19 05:28:55;;;;;;;14.93;8.43;;;;;;;-4.27;100.00;98133.81;4203406;28;20036;-73
2022/11/19 05:30:55;;;;;;;15.45;9.05;;;;;;;-4.29;100.00;98136.00;4204267;28;20048;-73
2022/11/19 05:32:55;;;;;;;17.20;8.02;;;;;;;-4.30;100.00;98140.59;4203055;28;20500;-73
2022/11/19 05:34:56;;;;;;;16.02;7.82;;;;;;;-4.32;100.00;98125.75;4204028;28;20055;-73
2022/11/19 05:36:56;;;;;;;13.73;7.10;;;;;;;-4.32;100.00;98131.97;4204409;28;20216;-72
2022/11/19 05:38:57;;;;;;;14.52;7.70;;;;;;;-4.30;100.00;98131.69;4205166;28;20098;-73
2022/11/19 05:40:57;;;;;;;13.60;7.82;;;;;;;-4.29;100.00;98139.50;4204119;28;20131;-73
2022/11/19 05:43:03;;;;;;;16.05;7.88;;;;;;;-4.26;100.00;98135.41;4202880;28;20082;-73
2022/11/19 05:45:04;;;;;;;14.80;7.82;;;;;;;-4.29;100.00;98136.81;4203784;28;20051;-73
2022/11/19 05:47:04;;;;;;;14.35;7.97;;;;;;;-4.29;100.00;98139.50;4204143;28;20059;-73
2022/11/19 05:49:04;;;;;;;16.55;8.23;;;;;;;-4.28;100.00;98140.31;4203552;28;20392;-73
2022/11/19 05:51:05;;;;;;;17.73;8.93;;;;;;;-4.27;100.00;98129.22;4203565;28;20050;-73
2022/11/19 05:53:05;;;;;;;14.32;7.72;;;;;;;-4.25;100.00;98140.53;4203579;28;20097;-73
2022/11/19 05:55:06;;;;;;;15.90;8.02;;;;;;;-4.24;100.00;98150.22;4203672;28;20256;-73
2022/11/19 05:57:06;;;;;;;18.08;8.05;;;;;;;-4.24;100.00;98163.75;4203503;28;20132;-73
2022/11/19 05:59:06;;;;;;;13.30;7.85;;;;;;;-4.25;100.00;98155.94;4203799;28;20047;-73
2022/11/19 06:01:07;;;;;;;17.48;8.75;;;;;;;-4.25;100.00;98156.72;4203285;28;20105;-73
2022/11/19 06:03:09;;;;;;;15.77;8.32;;;;;;;-4.25;100.00;98155.94;4202646;28;20048;-73
2022/11/19 06:05:09;;;;;;;15.80;8.30;;;;;;;-4.26;100.00;98157.81;4203732;28;20799;-73
2022/11/19 06:07:10;;;;;;;15.35;8.55;;;;;;;-4.29;100.00;98155.72;4203432;28;20047;-73
2022/11/19 06:09:10;;;;;;;13.90;7.70;;;;;;;-4.29;100.00;98149.50;4203716;28;20470;-73
2022/11/19 06:11:46;;;;;;;19.13;9.38;;;;;;;-4.31;100.00;98146.28;4201992;28;20042;-73
2022/11/19 06:13:31;;;;;;;14.88;8.18;;;;;;;-4.28;100.00;98148.41;4201115;28;20495;-73
2022/11/19 06:15:31;;;;;;;18.38;9.65;;;;;;;-4.29;100.00;98146.81;4202029;28;20044;-73
2022/11/19 06:17:32;;;;;;;17.10;8.82;;;;;;;-4.31;100.00;98157.88;4203465;28;20094;-73
2022/11/19 06:19:32;;;;;;;19.85;9.02;;;;;;;-4.33;100.00;98159.28;4203654;28;20899;-73
2022/11/19 06:21:33;;;;;;;17.65;8.68;;;;;;;-4.33;100.00;98160.06;4203668;28;20043;-73
2022/11/19 06:23:33;;;;;;;17.70;8.68;;;;;;;-4.27;100.00;98161.63;4202440;28;20718;-73
2022/11/19 06:25:33;;;;;;;19.48;9.25;;;;;;;-4.30;100.00;98154.13;4202679;28;20645;-73
2022/11/19 06:27:34;;;;;;;18.10;8.82;;;;;;;-4.26;100.00;98168.63;4203151;28;20032;-73
2022/11/19 06:29:34;;;;;;;17.20;9.52;;;;;;;-4.28;100.00;98168.13;4201325;28;20044;-73
2022/11/19 06:31:35;;;;;;;19.25;9.43;;;;;;;-4.27;100.00;98177.03;4123632;27;20059;-73
2022/11/19 06:33:35;;;;;;;16.83;8.60;;;;;;;-4.24;100.00;98171.84;4204989;28;20032;-73
2022/11/19 06:35:35;;;;;;;19.50;9.00;;;;;;;-4.25;100.00;98180.25;4202985;28;20076;-73
2022/11/19 06:37:36;;;;;;;19.58;9.50;;;;;;;-4.22;100.00;98178.84;4202899;28;20089;-73
2022/11/19 06:39:36;;;;;;;22.05;10.20;;;;;;;-4.25;100.00;98172.94;4203302;28;20478;-73
2022/11/19 06:41:36;;;;;;;21.55;9.77;;;;;;;-4.27;100.00;98179.72;4202612;28;20503;-73
2022/11/19 06:43:37;;;;;;;18.90;9.88;;;;;;;-4.27;100.00;98182.44;4202045;28;20253;-73
2022/11/19 06:45:37;;;;;;;21.73;9.85;;;;;;;-4.31;100.00;98170.59;4202643;28;20444;-73
2022/11/19 06:47:39;;;;;;;19.42;9.43;;;;;;;-4.32;100.00;98175.19;4202767;28;20468;-73
2022/11/19 06:49:39;;;;;;;21.88;10.68;;;;;;;-4.31;100.00;98187.59;4202733;28;20439;-73
2022/11/19 06:51:39;;;;;;;18.40;9.48;;;;;;;-4.29;100.00;98193.53;4202736;28;20051;-73
2022/11/19 06:53:39;;;;;;;16.73;8.40;;;;;;;-4.29;100.00;98192.72;4202405;28;20456;-73
2022/11/19 06:55:40;;;;;;;20.50;9.93;;;;;;;-4.28;100.00;98197.03;4202857;28;20340;-73
2022/11/19 06:57:40;;;;;;;19.60;9.45;;;;;;;-4.28;100.00;98195.13;4202301;28;20130;-73
2022/11/19 06:59:40;;;;;;;21.52;8.82;;;;;;;-4.28;100.00;98207.84;4203228;28;20043;-73
2022/11/19 07:01:41;;;;;;;19.30;9.20;;;;;;;-4.26;100.00;98208.34;4201283;28;20067;-73
2022/11/19 07:03:41;;;;;;;16.67;7.78;;;;;;;-4.29;100.00;98201.63;4201212;28;20165;-73
2022/11/19 07:05:42;;;;;;;19.23;8.68;;;;;;;-4.28;100.00;98189.75;4201821;28;20043;-73
2022/11/19 07:07:42;;;;;;;17.33;9.27;;;;;;;-4.28;100.00;98194.34;4202668;28;20477;-73
2022/11/19 07:09:42;;;;;;;18.35;9.07;;;;;;;-4.26;100.00;98194.84;4201462;28;20044;-73
2022/11/19 07:11:43;;;;;;;21.02;9.80;;;;;;;-4.27;100.00;98193.25;4202720;28;20048;-73
2022/11/19 07:13:58;;;;;;;19.05;9.70;;;;;;;-4.25;100.00;98183.75;4201880;28;20074;-73
2022/11/19 07:16:01;;;;;;;20.33;9.45;;;;;;;-4.25;100.00;98193.75;4202668;28;20295;-73
2022/11/19 07:18:01;;;;;;;19.58;9.38;;;;;;;-4.24;100.00;98192.66;4202758;28;20040;-73
2022/11/19 07:20:03;;;;;;;21.13;10.07;;;;;;;-4.20;100.00;98196.41;4202356;28;20026;-73
2022/11/19 07:22:04;;;;;;;18.48;9.38;;;;;;;-4.19;100.00;98203.41;4202562;28;20584;-73
2022/11/19 07:24:06;;;;;;;20.10;9.30;;;;;;;-4.21;100.00;98199.41;4200486;28;20034;-73
2022/11/19 07:26:07;;;;;;;19.05;9.27;;;;;;;-4.21;100.00;98197.50;4200883;28;20036;-73
2022/11/19 07:28:07;;;;;;;21.80;9.45;;;;;;;-4.21;100.00;98202.91;4200778;28;20077;-73
2022/11/19 07:30:08;;;;;;;18.42;8.82;;;;;;;-4.23;100.00;98207.75;4202392;28;20020;-73
2022/11/19 07:32:09;;;;;;;19.73;9.80;;;;;;;-4.27;100.00;98204.84;4202635;28;20040;-73
2022/11/19 07:34:10;;;;;;;19.42;8.30;;;;;;;-4.25;100.00;98202.66;4201800;28;20465;-73
2022/11/19 07:36:11;;;;;;;16.33;7.88;;;;;;;-4.21;100.00;98207.50;4201795;28;20375;-73
2022/11/19 07:38:11;;;;;;;20.17;10.60;;;;;;;-4.23;100.00;98199.66;4202264;28;20111;-73
2022/11/19 07:40:13;;;;;;;19.00;8.75;;;;;;;-4.20;100.00;98211.81;4202255;28;20035;-73
2022/11/19 07:44:33;;;;;;;20.02;8.98;;;;;;;-4.14;100.00;98213.34;4202050;28;20413;-73
2022/11/19 07:46:33;;;;;;;18.75;8.93;;;;;;;-4.10;100.00;98220.59;4202517;28;20044;-73
2022/11/19 07:48:34;;;;;;;22.08;9.85;;;;;;;-4.12;100.00;98220.09;4202204;28;20043;-73
2022/11/19 07:50:34;;;;;;;20.35;9.65;;;;;;;-4.10;100.00;98228.69;4202295;28;20433;-73
2022/11/19 07:52:34;;;;;;;18.55;9.00;;;;;;;-4.07;100.00;98232.72;4201462;28;20760;-73
2022/11/19 07:54:35;;;;;;;21.58;8.98;;;;;;;-4.05;100.00;98230.53;4202258;28;20040;-73
2022/11/19 07:56:35;;;;;;;21.60;10.68;;;;;;;-4.04;100.00;98227.53;4203755;28;20043;-73
2022/11/19 07:58:35;;;;;;;18.33;9.95;;;;;;;-3.99;100.00;98237.47;4205528;28;20299;-73
2022/11/19 08:00:36;;;;;;;21.70;11.27;;;;;;;-3.99;100.00;98234.78;4205573;28;20318;-73
2022/11/19 08:02:36;;;;;;;20.58;10.32;;;;;;;-3.99;100.00;98232.06;4204562;28;20052;-73
2022/11/19 08:04:36;;;;;;;21.48;9.88;;;;;;;-4.01;100.00;98228.84;4205661;28;20454;-73
2022/11/19 08:06:37;;;;;;;16.75;9.25;;;;;;;-3.99;100.00;98234.78;4206155;28;20044;-73
2022/11/19 08:08:37;;;;;;;18.33;9.80;;;;;;;-3.99;100.00;98235.56;4205184;28;20552;-73
2022/11/19 08:10:37;;;;;;;20.50;9.77;;;;;;;-3.98;100.00;98230.97;4205312;28;20032;-73
2022/11/19 08:12:38;;;;;;;22.25;10.15;;;;;;;-3.92;100.00;98237.94;4204965;28;20174;-73
2022/11/19 08:14:38;;;;;;;23.05;11.88;;;;;;;-3.90;100.00;98240.34;4205073;28;20516;-73
2022/11/19 08:19:00;;;;;;;22.45;10.68;;;;;;;-3.94;100.00;98244.72;4205698;28;20442;-73
2022/11/19 08:21:05;;;;;;;21.77;10.95;;;;;;;-3.93;100.00;98247.13;4205437;28;20121;-73
2022/11/19 08:23:06;;;;;;;22.98;11.10;;;;;;;-3.97;100.00;98238.00;4204011;28;20044;-73
2022/11/19 08:25:06;;;;;;;23.17;11.43;;;;;;;-3.99;100.00;98237.47;4204947;28;20051;-73
2022/11/19 08:27:06;;;;;;;18.80;10.18;;;;;;;-4.00;100.00;98233.97;4205725;28;20439;-73
2022/11/19 08:29:07;;;;;;;22.90;10.77;;;;;;;-3.96;100.00;98240.41;4204795;28;20081;-73
2022/11/19 08:31:08;;;;;;;20.50;10.07;;;;;;;-3.94;100.00;98233.91;4204892;28;20040;-73
2022/11/19 08:33:08;;;;;;;20.00;10.50;;;;;;;-3.91;100.00;98239.53;4204470;28;20519;-73
2022/11/19 08:35:09;;;;;;;19.10;10.00;;;;;;;-3.92;100.00;98237.13;4205269;28;20052;-73
2022/11/19 08:37:12;;;;;;;22.33;11.32;;;;;;;-3.91;100.00;98241.44;4202022;28;20044;-73
2022/11/19 08:39:12;;;;;;;20.33;10.60;;;;;;;-3.92;100.00;98243.34;4204169;28;20527;-73
2022/11/19 08:43:31;;;;;;;23.83;11.68;;;;;;;-3.93;100.00;98247.13;4203534;28;20502;-73
2022/11/19 08:45:37;;;;;;;20.25;10.98;;;;;;;-3.92;100.00;98246.03;4202870;28;20131;-73
2022/11/19 08:47:37;;;;;;;18.52;10.23;;;;;;;-3.88;100.00;98246.28;4202583;28;20147;-73
2022/11/19 08:49:38;;;;;;;24.90;13.25;;;;;;;-3.89;100.00;98241.94;4203411;28;20516;-73
2022/11/19 08:51:39;;;;;;;20.73;12.38;;;;;;;-3.87;100.00;98256.00;4203655;28;20042;-73
2022/11/19 08:53:39;;;;;;;20.73;11.93;;;;;;;-3.84;100.00;98245.41;4203923;28;20032;-73
2022/11/19 08:55:39;;;;;;;20.33;11.45;;;;;;;-3.83;100.00;98252.41;4204867;28;20074;-73
2022/11/19 08:57:40;;;;;;;16.90;9.68;;;;;;;-3.85;100.00;98243.78;4204798;28;20044;-73
2022/11/19 08:59:40;;;;;;;16.02;8.10;;;;;;;-3.79;100.00;98260.75;4204721;28;20086;-73
2022/11/19 09:01:40;;;;;;;16.95;9.25;;;;;;;-3.83;100.00;98255.13;4204708;28;20090;-73
2022/11/19 09:03:41;;;;;;;19.10;10.38;;;;;;;-3.89;100.00;98255.47;4204331;28;20143;-73
2022/11/19 09:05:42;;;;;;;17.10;9.77;;;;;;;-3.91;100.00;98254.94;4204093;28;20454;-73
2022/11/19 09:07:42;;;;;;;21.48;11.43;;;;;;;-3.88;100.00;98262.50;4203684;28;20127;-73
2022/11/19 09:09:43;;;;;;;20.23;10.32;;;;;;;-3.85;100.00;98260.00;4204457;28;20528;-73
2022/11/19 09:11:43;;;;;;;20.75;11.18;;;;;;;-3.81;100.00;98262.94;4204504;28;20577;-73
2022/11/19 09:13:43;;;;;;;21.48;11.10;;;;;;;-3.88;100.00;98263.31;4203407;28;20131;-73
2022/11/19 09:15:47;;;;;;;18.70;10.43;;;;;;;-3.96;100.00;98261.25;4204474;28;20052;-73
2022/11/19 09:17:47;;;;;;;19.58;10.63;;;;;;;-3.98;100.00;98258.81;4204643;28;20040;-73
2022/11/19 09:19:48;;;;;;;20.75;11.18;;;;;;;-3.94;100.00;98260.94;4204824;28;20073;-73
2022/11/19 09:21:49;;;;;;;20.15;10.57;;;;;;;-3.97;100.00;98265.84;4204288;28;20044;-73
2022/11/19 09:23:49;;;;;;;20.60;10.35;;;;;;;-4.01;100.00;98259.38;4203789;28;20275;-73
2022/11/19 09:26:03;;;;;;;26.85;12.50;;;;;;;-4.03;100.00;98274.28;4203557;28;20527;-73
2022/11/19 09:28:03;;;;;;;29.65;16.45;;;;;;;-4.13;100.00;98269.00;4201445;28;20299;-73
2022/11/19 09:30:06;;;;;;;22.23;13.00;;;;;;;-4.12;100.00;98270.63;4201389;28;20085;-73
2022/11/19 09:32:06;;;;;;;22.65;12.80;;;;;;;-4.16;100.00;98270.38;4203429;28;20038;-73
2022/11/19 09:34:06;;;;;;;18.90;10.52;;;;;;;-4.20;100.00;98276.66;4203598;28;20036;-73
2022/11/19 09:36:08;;;;;;;19.17;10.65;;;;;;;-4.21;100.00;98267.75;4204183;28;20111;-73
2022/11/19 09:38:09;;;;;;;18.83;9.82;;;;;;;-4.19;100.00;98268.25;4204306;28;20036;-73
2022/11/19 09:40:19;;;;;;;22.65;10.73;;;;;;;-4.22;100.00;98266.09;4203971;28;20024;-73